Time;durP1;ratioP1;P1;durP2;ratioP2;P2;SDS_P1;SDS_P2;PMS_P1;PMS_P2;Temp;Humidity;BMP_temperature;BMP_pressure;BME280_temperature;BME280_humidity;BME280_pressure;Samples;Min_cycle;Max_cycle;Signal;HPM_P1;HPM_P2
2022/11/23 00:01:33;;;;;;;31.17;20.10;;;;;;;1.77;100.00;95810.31;5028819;28;20768;-69
2022/11/23 00:04:03;;;;;;;32.60;20.07;;;;;;;1.76;100.00;95806.06;4987432;28;20212;-71
2022/11/23 00:06:31;;;;;;;29.77;21.37;;;;;;;1.78;100.00;95817.16;5025146;28;20528;-73
2022/11/23 00:08:59;;;;;;;29.83;21.40;;;;;;;1.80;100.00;95823.03;5029890;28;20231;-72
2022/11/23 00:11:27;;;;;;;29.37;20.73;;;;;;;1.77;100.00;95815.53;5005205;28;20223;-70
2022/11/23 00:13:56;;;;;;;25.23;20.47;;;;;;;1.80;100.00;95823.03;5032822;28;20208;-72
2022/11/23 00:16:26;;;;;;;29.07;20.17;;;;;;;1.77;100.00;95818.13;5028738;28;20842;-70
2022/11/23 00:18:54;;;;;;;28.47;20.67;;;;;;;1.76;100.00;95813.88;5029047;28;20204;-72
2022/11/23 00:21:23;;;;;;;31.37;22.20;;;;;;;1.74;100.00;95816.66;4981322;28;20591;-71
2022/11/23 00:23:51;;;;;;;30.60;21.40;;;;;;;1.76;100.00;95819.91;5033483;28;20714;-71
2022/11/23 00:26:19;;;;;;;29.90;21.13;;;;;;;1.79;100.00;95822.19;5010111;28;20531;-71
2022/11/23 00:28:47;;;;;;;32.37;23.03;;;;;;;1.78;100.00;95819.75;5031129;28;20653;-73
2022/11/23 00:31:18;;;;;;;29.23;21.90;;;;;;;1.83;100.00;95817.47;5029755;28;20219;-70
2022/11/23 00:33:48;;;;;;;30.23;22.30;;;;;;;1.81;100.00;95822.06;5034833;28;20425;-72
2022/11/23 00:36:16;;;;;;;34.53;24.37;;;;;;;1.76;100.00;95825.13;4979579;28;20224;-70
2022/11/23 00:38:44;;;;;;;36.27;22.17;;;;;;;1.79;100.00;95818.78;5029612;28;20222;-71
2022/11/23 00:41:13;;;;;;;37.63;22.60;;;;;;;1.78;100.00;95812.72;5008467;28;20214;-70
2022/11/23 00:43:41;;;;;;;35.47;22.80;;;;;;;1.83;100.00;95814.88;5029681;28;20340;-71
2022/11/23 00:46:13;;;;;;;40.30;24.70;;;;;;;1.83;100.00;95810.44;5033031;28;20257;-71
2022/11/23 00:48:42;;;;;;;35.43;23.43;;;;;;;1.82;100.00;95802.78;5029454;28;20334;-72
2022/11/23 00:51:14;;;;;;;36.33;23.67;;;;;;;1.80;100.00;95807.34;5020190;28;20255;-71
2022/11/23 00:53:42;;;;;;;37.00;23.47;;;;;;;1.82;100.00;95824.47;5002562;28;20392;-72
2022/11/23 00:56:10;;;;;;;33.80;22.90;;;;;;;1.84;100.00;95821.72;5032600;28;20258;-71
2022/11/23 00:58:38;;;;;;;39.37;23.37;;;;;;;1.82;100.00;95823.69;5013068;28;20442;-73
2022/11/23 01:01:07;;;;;;;36.93;23.40;;;;;;;1.83;100.00;95822.72;5032300;28;20207;-70
2022/11/23 01:03:36;;;;;;;31.43;22.27;;;;;;;1.85;100.00;95824.16;5028887;28;20467;-72
2022/11/23 01:06:07;;;;;;;29.50;21.43;;;;;;;1.87;100.00;95824.00;5026736;28;20234;-72
2022/11/23 01:08:35;;;;;;;30.60;22.20;;;;;;;1.84;100.00;95821.72;4988452;28;20207;-71
2022/11/23 01:11:03;;;;;;;36.77;22.63;;;;;;;1.88;100.00;95817.81;4974090;28;20223;-72
2022/11/23 01:13:31;;;;;;;29.13;21.47;;;;;;;1.93;100.00;95823.34;5031663;28;21009;-72
2022/11/23 01:15:59;;;;;;;36.23;22.40;;;;;;;1.89;100.00;95819.44;5026933;28;20220;-72
2022/11/23 01:18:26;;;;;;;32.27;22.30;;;;;;;1.89;100.00;95819.44;5029660;28;20208;-71
2022/11/23 01:20:54;;;;;;;35.07;23.20;;;;;;;1.88;100.00;95817.81;4980196;28;20215;-72
2022/11/23 01:23:23;;;;;;;32.40;23.20;;;;;;;1.90;100.00;95815.03;5027369;28;20210;-70
2022/11/23 01:25:51;;;;;;;35.43;23.27;;;;;;;1.82;100.00;95808.81;4961347;28;20278;-71
2022/11/23 01:28:23;;;;;;;32.70;22.03;;;;;;;1.81;100.00;95811.59;5027179;28;20706;-70
2022/11/23 01:30:51;;;;;;;35.57;22.23;;;;;;;1.83;100.00;95812.25;5032115;28;20887;-70
2022/11/23 01:33:18;;;;;;;30.37;20.40;;;;;;;1.85;100.00;95811.09;5027934;28;20446;-70
2022/11/23 01:35:46;;;;;;;35.00;22.53;;;;;;;1.88;100.00;95821.22;5028122;28;20207;-71
2022/11/23 01:38:14;;;;;;;33.03;22.37;;;;;;;1.83;100.00;95815.66;5031100;28;20214;-70
2022/11/23 01:40:46;;;;;;;35.63;22.70;;;;;;;1.86;100.00;95817.94;4983829;28;21216;-72
2022/11/23 01:43:15;;;;;;;37.93;23.07;;;;;;;1.82;100.00;95821.06;5006172;28;20624;-70
2022/11/23 01:45:44;;;;;;;37.03;22.40;;;;;;;1.83;100.00;95825.31;5027584;28;20418;-72
2022/11/23 01:48:16;;;;;;;34.80;22.23;;;;;;;1.82;100.00;95823.69;5030867;28;20210;-70
2022/11/23 01:50:45;;;;;;;27.83;21.23;;;;;;;1.87;100.00;95824.81;5027084;28;20224;-70
2022/11/23 01:53:12;;;;;;;35.30;21.60;;;;;;;1.90;100.00;95830.72;5028503;28;20516;-70
2022/11/23 01:55:40;;;;;;;31.13;22.03;;;;;;;1.88;100.00;95834.28;5027426;28;20523;-72
2022/11/23 01:58:10;;;;;;;33.50;22.33;;;;;;;1.88;100.00;95833.47;4978668;28;20238;-70
2022/11/23 02:00:37;;;;;;;30.60;21.37;;;;;;;1.91;100.00;95840.97;5025574;28;20706;-72
2022/11/23 02:03:06;;;;;;;33.30;22.23;;;;;;;1.85;100.00;95839.81;5030457;28;20630;-72
2022/11/23 02:05:35;;;;;;;32.23;21.57;;;;;;;1.83;100.00;95836.56;5023840;28;20490;-72
2022/11/23 02:08:03;;;;;;;32.10;22.93;;;;;;;1.75;100.00;95839.19;5029940;28;20679;-72
2022/11/23 02:10:31;;;;;;;31.77;21.97;;;;;;;1.73;100.00;95841.97;5026344;28;20341;-72
2022/11/23 02:13:03;;;;;;;35.37;22.53;;;;;;;1.75;100.00;95847.00;4985410;28;20219;-72
2022/11/23 02:15:32;;;;;;;32.70;23.43;;;;;;;1.79;100.00;95847.50;5019262;28;20206;-72
2022/11/23 02:18:02;;;;;;;35.17;23.17;;;;;;;1.80;100.00;95849.16;5031700;28;20258;-72
2022/11/23 02:20:29;;;;;;;33.73;21.53;;;;;;;1.80;100.00;95856.97;5023814;28;20196;-72
2022/11/23 02:23:07;;;;;;;32.80;22.13;;;;;;;1.79;100.00;95861.38;5027360;28;20230;-71
2022/11/23 02:25:43;;;;;;;31.57;22.40;;;;;;;1.75;100.00;95861.88;5026779;28;20333;-71
2022/11/23 02:28:15;;;;;;;36.37;23.43;;;;;;;1.78;100.00;95864.97;4983211;28;20212;-70
2022/11/23 02:30:44;;;;;;;40.93;23.60;;;;;;;1.80;100.00;95857.78;5020719;28;20250;-70
2022/11/23 02:33:11;;;;;;;35.27;22.50;;;;;;;1.76;100.00;95853.88;5025066;28;20254;-72
2022/11/23 02:35:48;;;;;;;38.57;23.43;;;;;;;1.74;100.00;95840.16;5028234;28;20596;-71
2022/11/23 02:38:16;;;;;;;38.73;24.83;;;;;;;1.81;100.00;95853.41;5028054;28;20210;-72
2022/11/23 02:40:44;;;;;;;35.73;24.47;;;;;;;1.76;100.00;95850.44;5026543;28;20235;-70
2022/11/23 02:43:13;;;;;;;42.53;25.70;;;;;;;1.79;100.00;95852.75;4981989;28;20963;-72
2022/11/23 02:45:45;;;;;;;32.63;23.17;;;;;;;1.75;100.00;95862.69;5026259;28;20210;-69
2022/11/23 02:48:13;;;;;;;30.97;22.60;;;;;;;1.73;100.00;95857.63;5028446;28;20200;-71
2022/11/23 02:50:40;;;;;;;34.50;23.07;;;;;;;1.77;100.00;95862.53;5028947;28;20219;-71
2022/11/23 02:53:08;;;;;;;34.30;23.33;;;;;;;1.76;100.00;95853.88;5025748;28;20829;-73
2022/11/23 02:55:36;;;;;;;52.20;25.40;;;;;;;1.81;100.00;95854.19;5030977;28;20203;-71
2022/11/23 02:58:03;;;;;;;39.57;23.33;;;;;;;1.78;100.00;95854.53;4980350;28;21719;-72
2022/11/23 03:00:33;;;;;;;41.27;25.43;;;;;;;1.71;100.00;95856.97;5027106;28;20214;-73
2022/11/23 03:03:01;;;;;;;62.87;27.70;;;;;;;1.70;100.00;95863.16;5027027;28;20395;-72
2022/11/23 03:05:29;;;;;;;44.87;26.20;;;;;;;1.73;100.00;95865.47;5027566;28;20299;-72
2022/11/23 03:07:57;;;;;;;50.33;26.43;;;;;;;1.75;100.00;95857.44;5025922;28;20231;-72
2022/11/23 03:10:24;;;;;;;39.20;24.70;;;;;;;1.75;100.00;95854.84;5031202;28;20223;-73
2022/11/23 03:12:54;;;;;;;41.70;24.40;;;;;;;1.82;100.00;95852.41;5027235;28;20525;-70
2022/11/23 03:15:22;;;;;;;43.37;24.90;;;;;;;1.74;100.00;95855.81;4978957;28;20203;-73
2022/11/23 03:17:51;;;;;;;47.00;27.30;;;;;;;1.71;100.00;95862.19;4972032;28;20224;-71
2022/11/23 03:20:19;;;;;;;45.70;26.53;;;;;;;1.75;100.00;95862.69;5025550;28;20211;-70
2022/11/23 03:22:46;;;;;;;53.30;25.53;;;;;;;1.77;100.00;95852.09;5027329;28;20479;-72
2022/11/23 03:25:14;;;;;;;34.57;23.80;;;;;;;1.74;100.00;95848.00;5030117;28;20457;-70
2022/11/23 03:27:41;;;;;;;46.43;26.17;;;;;;;1.74;100.00;95848.00;5014620;28;20353;-72
2022/11/23 03:30:10;;;;;;;34.20;24.40;;;;;;;1.78;100.00;95844.06;5031099;28;20588;-72
2022/11/23 03:32:37;;;;;;;50.23;24.67;;;;;;;1.73;100.00;95855.03;4961279;28;20208;-72
2022/11/23 03:35:07;;;;;;;36.27;24.17;;;;;;;1.82;100.00;95849.81;5033376;28;20760;-71
2022/11/23 03:37:35;;;;;;;34.27;22.87;;;;;;;1.80;100.00;95849.16;5027785;28;20531;-72
2022/11/23 03:40:03;;;;;;;39.47;23.73;;;;;;;1.76;100.00;95853.88;5003189;28;21226;-70
2022/11/23 03:42:30;;;;;;;30.53;21.60;;;;;;;1.77;100.00;95862.53;5030160;28;20539;-72
2022/11/23 03:44:58;;;;;;;34.23;23.00;;;;;;;1.69;100.00;95865.94;5033376;28;20265;-69
2022/11/23 03:47:26;;;;;;;35.63;23.57;;;;;;;1.72;100.00;95865.63;5007918;28;20235;-69
2022/11/23 03:49:53;;;;;;;30.60;22.47;;;;;;;1.75;100.00;95869.72;4979319;28;20241;-71
2022/11/23 03:52:22;;;;;;;34.47;22.87;;;;;;;1.80;100.00;95870.84;5029661;28;20215;-69
2022/11/23 03:54:50;;;;;;;35.37;23.07;;;;;;;1.78;100.00;95867.56;5009471;28;20219;-71
2022/11/23 03:57:17;;;;;;;33.20;23.17;;;;;;;1.76;100.00;95860.91;5032421;28;20293;-72
2022/11/23 03:59:45;;;;;;;34.57;22.93;;;;;;;1.81;100.00;95848.16;5031369;28;20207;-73
2022/11/23 04:02:13;;;;;;;32.37;23.03;;;;;;;1.82;100.00;95847.19;5010557;28;22687;-71
2022/11/23 04:04:40;;;;;;;33.87;23.77;;;;;;;1.78;100.00;95853.72;4985783;28;20594;-72
2022/11/23 04:07:08;;;;;;;34.00;22.73;;;;;;;1.76;100.00;95846.03;5022404;28;20228;-72
2022/11/23 04:09:37;;;;;;;33.13;22.83;;;;;;;1.78;100.00;95848.50;5011373;28;20204;-72
2022/11/23 04:12:05;;;;;;;30.63;22.10;;;;;;;1.99;100.00;95850.63;5027335;28;20227;-72
2022/11/23 04:14:32;;;;;;;33.73;23.70;;;;;;;2.06;100.00;95854.22;5031253;28;20203;-72
2022/11/23 04:17:01;;;;;;;32.80;24.43;;;;;;;1.93;100.00;95862.53;5008018;28;20219;-71
2022/11/23 04:19:28;;;;;;;37.63;23.23;;;;;;;1.88;100.00;95849.94;4986827;28;20774;-72
2022/11/23 04:21:58;;;;;;;38.83;23.97;;;;;;;1.83;100.00;95854.03;5027883;28;20988;-71
2022/11/23 04:24:25;;;;;;;34.57;22.83;;;;;;;1.80;100.00;95854.38;5005121;28;20238;-72
2022/11/23 04:26:54;;;;;;;31.87;23.00;;;;;;;1.81;100.00;95848.97;5035279;28;20309;-72
2022/11/23 04:29:22;;;;;;;35.13;24.27;;;;;;;1.73;100.00;95841.13;5033091;28;20208;-71
2022/11/23 04:31:50;;;;;;;34.30;22.67;;;;;;;1.81;100.00;95848.97;5032992;28;20227;-70
2022/11/23 04:34:17;;;;;;;32.73;23.20;;;;;;;1.81;100.00;95848.97;4961026;28;20872;-72
2022/11/23 04:36:45;;;;;;;30.23;21.67;;;;;;;1.81;100.00;95848.16;4998246;28;20313;-70
2022/11/23 04:39:13;;;;;;;29.03;22.00;;;;;;;1.84;100.00;95842.63;5032883;28;20603;-72
2022/11/23 04:41:40;;;;;;;35.83;23.43;;;;;;;1.87;100.00;95839.69;4982428;28;20613;-70
2022/11/23 04:44:10;;;;;;;33.00;23.53;;;;;;;1.85;100.00;95839.03;5032671;28;20483;-72
2022/11/23 04:46:37;;;;;;;31.50;23.20;;;;;;;1.85;100.00;95841.63;5029634;28;20220;-70
2022/11/23 04:49:05;;;;;;;32.80;23.03;;;;;;;1.84;100.00;95840.00;5008449;28;20870;-72
2022/11/23 04:51:32;;;;;;;34.37;22.53;;;;;;;1.84;100.00;95840.00;4984763;28;20223;-70
2022/11/23 04:54:00;;;;;;;33.23;22.17;;;;;;;1.88;100.00;95841.31;5033264;28;20345;-71
2022/11/23 04:56:27;;;;;;;36.83;22.97;;;;;;;1.83;100.00;95831.34;5033310;28;20227;-73
2022/11/23 04:58:55;;;;;;;34.27;22.80;;;;;;;1.88;100.00;95839.50;5007368;28;20442;-73
2022/11/23 05:01:24;;;;;;;36.93;23.47;;;;;;;1.90;100.00;95851.63;5026352;28;20691;-70
2022/11/23 05:03:52;;;;;;;33.43;22.97;;;;;;;1.93;100.00;95849.47;5005375;28;22795;-70
2022/11/23 05:06:19;;;;;;;37.60;24.10;;;;;;;1.93;100.00;95859.13;4982389;28;20239;-68
2022/11/23 05:08:47;;;;;;;29.73;22.40;;;;;;;1.92;100.00;95854.88;5026450;28;20212;-68
2022/11/23 05:11:15;;;;;;;31.43;22.97;;;;;;;1.89;100.00;95856.00;5010466;28;20231;-72
2022/11/23 05:13:42;;;;;;;34.07;23.37;;;;;;;1.88;100.00;95843.94;5008959;28;20222;-69
2022/11/23 05:16:10;;;;;;;32.00;23.10;;;;;;;1.86;100.00;95841.47;5029314;28;20216;-70
2022/11/23 05:18:39;;;;;;;41.60;25.83;;;;;;;1.87;100.00;95837.06;5031314;28;20207;-70
2022/11/23 05:21:06;;;;;;;31.30;22.97;;;;;;;1.85;100.00;95832.00;4960454;28;21540;-74
2022/11/23 05:23:34;;;;;;;33.20;23.10;;;;;;;1.86;100.00;95831.00;5033735;28;20512;-72
2022/11/23 05:26:02;;;;;;;29.30;21.47;;;;;;;1.88;100.00;95841.31;4973605;28;20232;-74
2022/11/23 05:28:36;;;;;;;43.13;23.53;;;;;;;1.83;100.00;95843.59;4989721;28;20861;-71
2022/11/23 05:31:08;;;;;;;34.93;23.37;;;;;;;1.81;100.00;95842.94;5045344;28;20309;-74
2022/11/23 05:33:36;;;;;;;34.23;24.40;;;;;;;1.82;100.00;95839.34;5010999;28;20291;-72
2022/11/23 05:36:05;;;;;;;37.03;23.20;;;;;;;1.73;100.00;95844.56;5015025;28;20236;-73
2022/11/23 05:38:33;;;;;;;34.30;22.90;;;;;;;1.73;100.00;95841.97;5036566;28;20200;-73
2022/11/23 05:41:00;;;;;;;32.27;21.67;;;;;;;1.71;100.00;95851.75;4970969;28;20211;-74
2022/11/23 05:43:28;;;;;;;36.20;24.73;;;;;;;1.70;100.00;95837.03;5002688;28;20707;-73
2022/11/23 05:45:58;;;;;;;32.53;23.10;;;;;;;1.69;100.00;95830.19;5037754;28;20614;-75
2022/11/23 05:48:26;;;;;;;29.90;22.97;;;;;;;1.71;100.00;95838.69;5008222;28;20219;-71
2022/11/23 05:50:54;;;;;;;38.67;25.00;;;;;;;1.78;100.00;95836.25;5033212;28;20377;-73
2022/11/23 05:53:23;;;;;;;38.80;23.77;;;;;;;1.75;100.00;95838.38;5030938;28;20228;-73
2022/11/23 05:55:50;;;;;;;38.00;23.87;;;;;;;1.69;100.00;95852.88;5017609;28;20200;-74
2022/11/23 05:58:18;;;;;;;33.60;25.43;;;;;;;1.72;100.00;95853.38;4981342;28;20223;-71
2022/11/23 06:00:45;;;;;;;35.13;24.47;;;;;;;1.78;100.00;95848.50;5035326;28;20199;-74
2022/11/23 06:03:16;;;;;;;36.17;23.63;;;;;;;1.77;100.00;95855.50;5027462;28;20670;-71
2022/11/23 06:05:46;;;;;;;43.73;26.03;;;;;;;1.68;100.00;95851.25;5023932;28;20500;-71
2022/11/23 06:08:14;;;;;;;35.57;23.77;;;;;;;1.67;100.00;95857.44;5031831;28;20208;-72
2022/11/23 06:10:43;;;;;;;41.73;23.90;;;;;;;1.70;100.00;95860.53;5012400;28;20849;-73
2022/11/23 06:13:11;;;;;;;45.63;25.93;;;;;;;1.68;100.00;95854.66;4989353;28;20230;-72
2022/11/23 06:15:38;;;;;;;34.73;25.60;;;;;;;1.68;100.00;95859.88;5028363;28;20536;-72
2022/11/23 06:18:06;;;;;;;33.80;23.40;;;;;;;1.79;100.00;95855.34;5031930;28;20202;-73
2022/11/23 06:20:33;;;;;;;33.47;23.50;;;;;;;1.73;100.00;95854.19;5005659;28;20870;-73
2022/11/23 06:23:01;;;;;;;32.50;23.20;;;;;;;1.75;100.00;95848.81;5033154;28;20199;-74
2022/11/23 06:25:29;;;;;;;31.47;22.77;;;;;;;1.78;100.00;95846.69;5031665;28;20215;-72
2022/11/23 06:27:59;;;;;;;34.60;24.03;;;;;;;1.76;100.00;95845.22;5011692;28;20234;-72
2022/11/23 06:30:28;;;;;;;36.33;24.47;;;;;;;1.77;100.00;95846.88;4982257;28;20754;-71
2022/11/23 06:32:55;;;;;;;36.43;24.07;;;;;;;1.76;100.00;95840.81;5038345;28;20242;-73
2022/11/23 06:35:24;;;;;;;34.27;23.60;;;;;;;1.68;100.00;95849.44;5003497;28;20273;-73
2022/11/23 06:37:53;;;;;;;35.47;23.73;;;;;;;1.66;100.00;95853.19;5035500;28;20227;-71
2022/11/23 06:40:21;;;;;;;32.80;22.73;;;;;;;1.67;100.00;95854.84;5031856;28;20207;-73
2022/11/23 06:42:48;;;;;;;36.87;23.33;;;;;;;1.69;100.00;95861.53;5014062;28;20215;-75
2022/11/23 06:45:17;;;;;;;37.80;23.17;;;;;;;1.69;100.00;95860.72;4979594;28;20215;-72
2022/11/23 06:47:45;;;;;;;38.43;23.27;;;;;;;1.73;100.00;95867.25;5034783;28;20866;-73
2022/11/23 06:50:14;;;;;;;35.77;22.83;;;;;;;1.76;100.00;95872.16;5026820;28;20219;-71
2022/11/23 06:52:41;;;;;;;32.20;23.60;;;;;;;1.75;100.00;95877.53;5018182;28;20223;-74
2022/11/23 06:55:09;;;;;;;36.07;23.37;;;;;;;1.81;100.00;95880.31;5034819;28;20226;-72
2022/11/23 06:57:36;;;;;;;32.77;24.07;;;;;;;1.85;100.00;95883.44;5011702;28;20856;-74
2022/11/23 07:00:05;;;;;;;33.00;23.20;;;;;;;1.86;100.00;95885.88;4989667;28;20274;-72
2022/11/23 07:02:34;;;;;;;30.70;21.70;;;;;;;2.07;100.00;95881.97;5029654;28;20534;-74
2022/11/23 07:05:02;;;;;;;31.73;22.10;;;;;;;2.06;100.00;95887.34;5030991;28;20215;-73
2022/11/23 07:07:29;;;;;;;30.50;22.37;;;;;;;2.01;100.00;95885.25;5007245;28;20235;-74
2022/11/23 07:09:57;;;;;;;31.00;22.27;;;;;;;1.91;100.00;95893.22;5039656;28;20195;-74
2022/11/23 07:12:30;;;;;;;31.43;23.03;;;;;;;2.02;100.00;95897.34;5017080;28;20359;-71
2022/11/23 07:14:57;;;;;;;28.43;21.23;;;;;;;1.97;100.00;95891.78;4991781;28;20227;-74
2022/11/23 07:17:25;;;;;;;29.60;21.63;;;;;;;2.05;100.00;95883.09;5023076;28;20228;-72
2022/11/23 07:19:54;;;;;;;26.47;20.57;;;;;;;1.93;100.00;95886.03;5036032;28;20211;-73
2022/11/23 07:22:21;;;;;;;28.07;21.57;;;;;;;2.09;100.00;95884.44;5005938;28;20208;-71
2022/11/23 07:24:49;;;;;;;26.90;20.97;;;;;;;2.13;100.00;95878.72;5032938;28;20658;-72
2022/11/23 07:27:19;;;;;;;23.23;19.03;;;;;;;2.09;100.00;95890.47;5022546;28;20779;-72
2022/11/23 07:29:47;;;;;;;25.63;20.27;;;;;;;2.04;100.00;95887.53;4980027;28;20222;-74
2022/11/23 07:32:14;;;;;;;25.80;21.20;;;;;;;2.13;100.00;95894.38;5036413;28;20314;-74
2022/11/23 07:34:42;;;;;;;28.17;21.67;;;;;;;2.02;100.00;95900.75;4980815;28;20215;-73
2022/11/23 07:37:11;;;;;;;24.30;20.40;;;;;;;2.10;100.00;95905.16;5027026;28;20288;-74
2022/11/23 07:39:38;;;;;;;23.73;19.90;;;;;;;2.08;100.00;95907.13;5032971;28;20265;-71
2022/11/23 07:42:24;;;;;;;22.23;19.73;;;;;;;2.10;100.00;95909.59;5029843;28;20269;-72
2022/11/23 07:45:02;;;;;;;26.40;19.97;;;;;;;2.21;100.00;95911.88;5028390;28;20211;-72
2022/11/23 07:47:30;;;;;;;25.23;20.37;;;;;;;2.14;100.00;95906.47;5032113;28;20222;-74
2022/11/23 07:49:58;;;;;;;26.13;20.33;;;;;;;2.10;100.00;95917.44;4976013;28;20481;-72
2022/11/23 07:52:26;;;;;;;22.77;20.23;;;;;;;2.24;100.00;95911.56;5028405;28;20231;-73
2022/11/23 07:54:54;;;;;;;23.10;19.73;;;;;;;2.25;100.00;95905.34;5032136;28;20196;-72
2022/11/23 07:57:22;;;;;;;25.00;20.70;;;;;;;2.25;100.00;95907.13;5029501;28;20349;-74
2022/11/23 07:59:49;;;;;;;22.67;19.90;;;;;;;2.27;100.00;95910.38;5032562;28;20203;-71
2022/11/23 08:02:17;;;;;;;24.83;21.20;;;;;;;2.29;100.00;95917.09;5032701;28;20352;-73
2022/11/23 08:04:44;;;;;;;23.70;20.67;;;;;;;2.24;100.00;95898.47;4989946;28;20211;-71
2022/11/23 08:07:12;;;;;;;22.83;19.60;;;;;;;2.41;100.00;95909.75;5028627;28;20442;-73
2022/11/23 08:09:41;;;;;;;22.73;20.33;;;;;;;2.33;100.00;95903.72;5006974;28;20230;-71
2022/11/23 08:12:09;;;;;;;21.50;19.20;;;;;;;2.45;100.00;95910.22;5029946;28;20215;-74
2022/11/23 08:14:36;;;;;;;25.83;22.60;;;;;;;2.51;100.00;95906.16;5029760;28;20212;-71
2022/11/23 08:17:04;;;;;;;24.17;20.17;;;;;;;2.59;100.00;95911.38;5024795;28;20224;-71
2022/11/23 08:19:31;;;;;;;21.40;19.07;;;;;;;2.57;100.00;95911.53;4987730;28;20212;-73
2022/11/23 08:21:59;;;;;;;20.33;18.07;;;;;;;2.55;100.00;95916.13;5031685;28;20208;-72
2022/11/23 08:24:26;;;;;;;22.07;19.67;;;;;;;2.49;100.00;95921.19;5036290;28;20557;-74
2022/11/23 08:26:56;;;;;;;22.20;18.30;;;;;;;2.55;100.00;95907.44;5012200;28;20338;-71
2022/11/23 08:29:24;;;;;;;22.33;18.77;;;;;;;2.79;100.00;95918.88;5033512;28;20930;-73
2022/11/23 08:31:51;;;;;;;23.20;18.87;;;;;;;2.73;100.00;95925.56;5034410;28;20199;-73
2022/11/23 08:34:19;;;;;;;22.90;18.93;;;;;;;2.66;100.00;95927.22;4987774;28;20761;-70
2022/11/23 08:36:47;;;;;;;21.80;19.50;;;;;;;2.65;100.00;95923.81;5035419;28;20749;-74
2022/11/23 08:39:16;;;;;;;20.33;17.97;;;;;;;2.63;100.00;95930.16;5035469;28;20211;-72
2022/11/23 08:41:43;;;;;;;21.67;19.00;;;;;;;2.70;100.00;95925.91;5013475;28;20203;-75
2022/11/23 08:44:12;;;;;;;22.07;17.90;;;;;;;2.83;100.00;95935.88;5033873;28;20192;-74
2022/11/23 08:46:40;;;;;;;21.43;19.07;;;;;;;2.82;100.00;95924.56;5033580;28;20997;-74
2022/11/23 08:49:08;;;;;;;22.33;20.03;;;;;;;2.81;100.00;95927.38;4985785;28;20208;-72
2022/11/23 08:51:35;;;;;;;23.20;18.23;;;;;;;2.88;100.00;95928.34;5029111;28;20626;-73
2022/11/23 08:54:03;;;;;;;23.27;20.80;;;;;;;2.91;100.00;95927.19;5027439;28;20226;-70
2022/11/23 08:56:30;;;;;;;22.60;18.90;;;;;;;2.98;100.00;95934.19;5011870;28;20243;-74
2022/11/23 08:58:58;;;;;;;23.13;19.87;;;;;;;2.94;100.00;95932.91;5034408;28;20200;-72
2022/11/23 09:01:27;;;;;;;22.83;20.27;;;;;;;2.97;100.00;95934.38;5036401;28;20393;-74
2022/11/23 09:04:07;;;;;;;25.90;19.60;;;;;;;2.89;100.00;95935.19;5017551;28;20258;-72
2022/11/23 09:06:35;;;;;;;22.83;18.97;;;;;;;2.94;100.00;95939.94;5034356;28;20223;-72
2022/11/23 09:09:03;;;;;;;21.67;19.37;;;;;;;3.04;100.00;95941.41;5034711;28;20199;-73
2022/11/23 09:11:30;;;;;;;22.20;19.63;;;;;;;3.11;100.00;95938.09;5039294;28;20199;-73
2022/11/23 09:13:58;;;;;;;24.67;19.40;;;;;;;3.09;100.00;95942.69;5011372;28;20243;-73
2022/11/23 09:16:27;;;;;;;21.70;18.73;;;;;;;3.10;100.00;95937.28;5035620;28;20223;-71
2022/11/23 09:19:00;;;;;;;20.63;18.53;;;;;;;3.17;100.00;95940.06;5032757;28;20263;-73
2022/11/23 09:21:32;;;;;;;20.87;18.67;;;;;;;3.15;100.00;95934.97;4991408;28;20210;-74
2022/11/23 09:23:59;;;;;;;22.03;19.73;;;;;;;3.19;100.00;95944.13;5033391;28;20199;-72
2022/11/23 09:26:27;;;;;;;21.53;19.23;;;;;;;3.18;100.00;95952.16;5037260;28;20219;-74
2022/11/23 09:28:55;;;;;;;25.57;19.30;;;;;;;3.22;100.00;95942.16;5012594;28;20204;-71
2022/11/23 09:31:25;;;;;;;24.17;19.57;;;;;;;3.21;100.00;95938.72;5026034;28;20511;-72
2022/11/23 09:33:54;;;;;;;22.20;18.13;;;;;;;3.24;100.00;95948.06;5035643;28;20228;-72
2022/11/23 09:36:22;;;;;;;23.93;19.40;;;;;;;3.25;100.00;95942.63;4976633;28;20592;-73
2022/11/23 09:38:50;;;;;;;22.57;18.67;;;;;;;3.30;100.00;95940.31;5035594;28;20705;-72
2022/11/23 09:41:41;;;;;;;22.73;19.90;;;;;;;3.46;100.00;95942.06;4979794;28;20222;-74
2022/11/23 09:44:14;;;;;;;22.80;20.20;;;;;;;3.49;100.00;95938.31;5022415;28;20287;-72
2022/11/23 09:46:52;;;;;;;24.97;20.17;;;;;;;3.45;100.00;95926.53;5034030;28;20319;-72
2022/11/23 09:49:22;;;;;;;23.40;19.73;;;;;;;3.56;100.00;95927.94;5008353;28;20226;-71
2022/11/23 09:51:50;;;;;;;22.17;19.77;;;;;;;3.53;100.00;95926.50;5023252;28;20442;-72
2022/11/23 09:54:25;;;;;;;23.70;21.10;;;;;;;3.52;100.00;95926.66;5035090;28;20234;-74
2022/11/23 09:56:55;;;;;;;25.60;19.37;;;;;;;3.62;100.00;95919.44;4982445;28;20231;-73
2022/11/23 09:59:37;;;;;;;20.83;18.17;;;;;;;3.56;100.00;95925.34;5030487;28;20209;-73
2022/11/23 10:02:04;;;;;;;24.43;20.70;;;;;;;3.61;100.00;95918.59;5030627;28;20641;-73
2022/11/23 10:04:35;;;;;;;20.93;18.80;;;;;;;3.59;100.00;95919.75;5011526;28;20303;-72
2022/11/23 10:07:12;;;;;;;22.67;19.10;;;;;;;3.54;100.00;95927.31;5032340;28;20364;-72
2022/11/23 10:09:46;;;;;;;20.63;18.37;;;;;;;3.58;100.00;95921.56;5034000;28;20609;-72
2022/11/23 10:12:33;;;;;;;23.97;18.77;;;;;;;3.62;100.00;95920.22;4987509;28;20218;-73
2022/11/23 10:15:12;;;;;;;23.10;20.00;;;;;;;3.61;100.00;95917.81;5029682;28;20300;-75
2022/11/23 10:18:15;;;;;;;22.87;19.50;;;;;;;3.70;100.00;95921.19;5036952;28;20264;-72
2022/11/23 10:20:51;;;;;;;21.40;19.20;;;;;;;3.66;100.00;95915.47;5011161;28;20211;-70
2022/11/23 10:23:27;;;;;;;20.70;18.53;;;;;;;3.76;100.00;95915.25;5035106;28;20195;-72
2022/11/23 10:25:55;;;;;;;22.07;19.73;;;;;;;3.64;100.00;95914.00;5031871;28;20382;-73
2022/11/23 10:28:23;;;;;;;21.27;19.17;;;;;;;3.61;100.00;95915.97;4992354;28;20219;-73
2022/11/23 10:30:56;;;;;;;23.73;20.67;;;;;;;3.59;100.00;95910.09;5030756;28;20562;-74
2022/11/23 10:33:29;;;;;;;21.87;19.13;;;;;;;3.79;100.00;95908.84;5035587;28;20455;-74
2022/11/23 10:35:58;;;;;;;21.40;18.63;;;;;;;3.77;100.00;95895.91;5007515;28;20457;-74
2022/11/23 10:38:27;;;;;;;21.60;19.40;;;;;;;3.93;100.00;95902.06;5034962;28;20217;-73
2022/11/23 10:41:02;;;;;;;21.87;19.53;;;;;;;3.88;100.00;95902.56;5031915;28;20456;-74
2022/11/23 10:43:34;;;;;;;22.43;20.03;;;;;;;3.83;100.00;95904.91;4982761;28;20713;-73
2022/11/23 10:46:25;;;;;;;21.23;19.03;;;;;;;3.81;100.00;95899.84;5032551;28;20637;-74
2022/11/23 10:48:53;;;;;;;22.23;19.97;;;;;;;3.83;100.00;95895.25;5025392;28;20212;-75
2022/11/23 10:51:28;;;;;;;20.27;18.33;;;;;;;3.86;100.00;95889.66;5008594;28;20428;-75
2022/11/23 10:53:59;;;;;;;21.03;19.03;;;;;;;3.95;100.00;95892.22;5031830;28;20550;-74
2022/11/23 10:56:32;;;;;;;22.07;18.37;;;;;;;3.90;100.00;95885.69;5032610;28;20228;-73
2022/11/23 10:59:00;;;;;;;20.90;18.67;;;;;;;4.07;100.00;95887.41;4983647;28;20216;-75
2022/11/23 11:01:29;;;;;;;21.53;18.20;;;;;;;4.25;100.00;95882.66;5033620;28;20203;-74
2022/11/23 11:04:02;;;;;;;19.93;17.93;;;;;;;4.45;100.00;95879.56;5032591;28;20476;-73
2022/11/23 11:06:34;;;;;;;20.73;18.67;;;;;;;4.61;100.00;95874.16;5007923;28;20223;-73
2022/11/23 11:09:05;;;;;;;19.23;17.53;;;;;;;4.76;100.00;95870.75;5029913;28;20963;-72
2022/11/23 11:11:45;;;;;;;20.47;18.50;;;;;;;4.74;100.00;95868.28;5031718;28;20595;-72
2022/11/23 11:14:15;;;;;;;21.73;17.33;;;;;;;4.46;100.00;95875.94;4985715;28;20293;-74
2022/11/23 11:16:48;;;;;;;18.87;16.87;;;;;;;4.74;100.00;95870.13;5029937;28;20238;-72
2022/11/23 11:19:26;;;;;;;18.97;16.97;;;;;;;4.86;100.00;95868.66;5033704;28;20606;-72
2022/11/23 11:21:55;;;;;;;18.63;16.57;;;;;;;4.81;100.00;95870.19;5001855;28;22695;-72
2022/11/23 11:24:28;;;;;;;20.50;18.37;;;;;;;4.83;100.00;95865.56;5034096;28;20432;-71
2022/11/23 11:26:59;;;;;;;18.20;16.40;;;;;;;4.66;100.00;95860.50;5034352;28;20295;-74